Time;durP1;ratioP1;P1;durP2;ratioP2;P2;SDS_P1;SDS_P2;PMS_P1;PMS_P2;Temp;Humidity;BMP_temperature;BMP_pressure;BME280_temperature;BME280_humidity;BME280_pressure;Samples;Min_cycle;Max_cycle;Signal;HPM_P1;HPM_P2
2022/08/14 00:04:41;;;;;;;5.93;4.80;;;23.50;87.60;;;;;;4940600;28;20034;-78
2022/08/14 00:07:08;;;;;;;7.15;4.40;;;23.40;88.10;;;;;;4972710;28;20031;-78
2022/08/14 00:09:35;;;;;;;6.78;4.93;;;23.30;88.40;;;;;;4973811;28;20051;-79
2022/08/14 00:12:00;;;;;;;7.75;4.45;;;23.30;88.20;;;;;;4972989;28;20034;-78
2022/08/14 00:14:27;;;;;;;6.00;5.10;;;23.30;88.20;;;;;;4972774;28;20033;-78
2022/08/14 00:16:53;;;;;;;7.72;4.72;;;23.30;88.80;;;;;;4973069;28;20037;-77
2022/08/14 00:19:19;;;;;;;7.22;5.20;;;23.30;89.10;;;;;;4972192;28;20041;-79
2022/08/14 00:21:46;;;;;;;6.05;5.03;;;23.30;89.20;;;;;;4973080;28;20043;-78
2022/08/14 00:24:11;;;;;;;5.68;4.43;;;23.30;88.80;;;;;;4972831;28;20071;-79
2022/08/14 00:26:37;;;;;;;6.53;5.20;;;23.30;88.60;;;;;;4972196;28;20524;-78
2022/08/14 00:29:03;;;;;;;6.43;5.10;;;23.20;90.00;;;;;;4974000;28;20114;-80
2022/08/14 00:31:29;;;;;;;9.50;5.70;;;23.10;90.00;;;;;;4972673;28;20477;-78
2022/08/14 00:33:55;;;;;;;7.30;5.28;;;23.00;90.20;;;;;;4972712;28;20031;-77
2022/08/14 00:36:22;;;;;;;7.38;4.97;;;23.00;90.20;;;;;;4973569;28;20043;-77
2022/08/14 00:38:48;;;;;;;6.13;4.45;;;23.00;90.40;;;;;;4971728;28;20346;-77
2022/08/14 00:41:15;;;;;;;8.18;5.03;;;23.00;90.40;;;;;;4972259;28;20106;-77
2022/08/14 00:43:40;;;;;;;11.23;4.95;;;22.90;90.60;;;;;;4973882;28;20102;-77
2022/08/14 00:46:09;;;;;;;8.38;5.20;;;23.00;90.20;;;;;;4973173;28;20537;-78
2022/08/14 00:48:36;;;;;;;7.68;4.45;;;23.00;90.30;;;;;;4972053;28;20041;-77
2022/08/14 00:51:06;;;;;;;7.07;4.82;;;23.00;90.30;;;;;;4972128;28;20418;-79
2022/08/14 00:53:32;;;;;;;10.25;5.03;;;23.00;90.20;;;;;;4988031;28;20030;-79
2022/08/14 00:55:58;;;;;;;6.60;4.88;;;22.90;90.60;;;;;;4972432;28;20602;-80
2022/08/14 00:58:29;;;;;;;5.50;4.90;;;22.90;90.80;;;;;;4988090;28;20401;-77
2022/08/14 01:00:57;;;;;;;9.02;5.28;;;22.90;90.80;;;;;;4972973;28;20075;-79
2022/08/14 01:03:23;;;;;;;;;;;22.90;90.70;;;;;;4971893;28;20027;-79
2022/08/14 01:05:51;;;;;;;12.77;5.32;;;22.90;90.40;;;;;;4972759;28;19914;-78
2022/08/14 01:08:22;;;;;;;7.28;5.07;;;22.90;90.50;;;;;;4971741;28;20061;-78
2022/08/14 01:10:51;;;;;;;9.38;5.03;;;22.90;90.90;;;;;;4973114;28;20039;-79
2022/08/14 01:13:21;;;;;;;7.60;4.97;;;22.90;91.00;;;;;;4972639;28;20031;-77
2022/08/14 01:15:53;;;;;;;7.57;5.18;;;22.80;91.30;;;;;;4971776;28;20045;-78
2022/08/14 01:21:11;;;;;;;8.07;5.03;;;22.90;91.20;;;;;;4972608;28;20127;-79
2022/08/14 01:23:42;;;;;;;8.88;6.13;;;22.80;91.50;;;;;;4971451;28;20465;-79
2022/08/14 01:26:08;;;;;;;7.50;5.82;;;22.80;91.40;;;;;;4971992;28;20034;-76
2022/08/14 01:28:36;;;;;;;8.23;5.20;;;22.70;91.50;;;;;;4972824;28;20126;-79
2022/08/14 01:31:16;;;;;;;7.57;5.32;;;22.60;91.80;;;;;;4971419;28;20031;-79
2022/08/14 01:33:46;;;;;;;7.32;5.00;;;22.60;91.80;;;;;;4972476;28;20549;-77
2022/08/14 01:36:18;;;;;;;9.30;5.80;;;22.60;92.00;;;;;;4982994;28;20038;-78
2022/08/14 01:38:47;;;;;;;8.23;5.10;;;22.50;91.90;;;;;;4990571;28;20091;-78
2022/08/14 01:41:21;;;;;;;7.95;5.70;;;22.60;92.10;;;;;;4990625;28;20449;-79
2022/08/14 01:43:52;;;;;;;7.40;5.20;;;22.40;92.30;;;;;;4991477;28;20114;-78
2022/08/14 01:46:22;;;;;;;8.52;5.47;;;22.50;92.30;;;;;;4990620;28;20038;-79
2022/08/14 01:48:50;;;;;;;11.93;5.20;;;22.40;92.10;;;;;;4990464;28;20038;-78
2022/08/14 01:51:21;;;;;;;7.30;4.90;;;22.40;92.40;;;;;;4991463;28;20522;-79
2022/08/14 01:53:49;;;;;;;7.75;4.85;;;22.40;92.40;;;;;;4991975;28;20121;-78
2022/08/14 01:56:17;;;;;;;7.43;5.50;;;22.40;92.50;;;;;;4990723;28;20121;-78
2022/08/14 01:58:48;;;;;;;6.22;5.43;;;22.40;92.60;;;;;;4992064;28;20037;-78
2022/08/14 02:01:18;;;;;;;5.97;5.07;;;22.40;92.60;;;;;;4991681;28;20030;-77
2022/08/14 02:03:46;;;;;;;12.48;5.70;;;22.40;92.80;;;;;;4990295;28;20031;-78
2022/08/14 02:06:12;;;;;;;7.47;5.13;;;22.30;92.70;;;;;;4990263;28;20076;-78
2022/08/14 02:08:41;;;;;;;8.82;5.57;;;22.40;92.60;;;;;;4991721;28;20031;-79
2022/08/14 02:11:21;;;;;;;7.05;5.63;;;22.20;92.90;;;;;;4990596;28;20092;-80
2022/08/14 02:13:50;;;;;;;6.25;4.68;;;22.20;93.10;;;;;;4991211;28;20456;-77
2022/08/14 02:16:18;;;;;;;7.38;5.53;;;22.20;93.00;;;;;;4990240;28;20495;-78
2022/08/14 02:18:45;;;;;;;10.02;5.00;;;22.20;93.10;;;;;;4990143;28;20039;-77
2022/08/14 02:21:13;;;;;;;9.80;5.20;;;22.20;93.10;;;;;;4992967;28;20054;-78
2022/08/14 02:23:39;;;;;;;9.98;5.40;;;22.30;93.10;;;;;;4994032;28;20373;-78
2022/08/14 02:26:16;;;;;;;8.27;5.40;;;22.20;93.20;;;;;;4994554;28;20133;-78
2022/08/14 02:28:42;;;;;;;6.03;5.15;;;22.30;93.20;;;;;;4995167;28;20042;-77
2022/08/14 02:31:08;;;;;;;16.17;5.65;;;22.30;93.30;;;;;;4995370;28;20045;-78
2022/08/14 02:33:34;;;;;;;7.20;5.25;;;22.20;93.40;;;;;;4993799;28;20038;-78
2022/08/14 02:36:02;;;;;;;10.40;5.90;;;22.20;93.30;;;;;;4995252;28;20181;-79
2022/08/14 02:38:30;;;;;;;10.52;5.80;;;22.20;93.40;;;;;;4995105;28;20034;-77
2022/08/14 02:40:57;;;;;;;7.20;5.43;;;22.20;93.50;;;;;;4994348;28;20022;-78
2022/08/14 02:43:23;;;;;;;8.53;5.60;;;22.30;93.40;;;;;;4995079;28;20360;-78
2022/08/14 02:45:48;;;;;;;10.32;5.07;;;22.30;93.60;;;;;;4994862;28;20034;-77
2022/08/14 02:48:14;;;;;;;7.65;5.53;;;22.10;93.80;;;;;;4994685;28;20539;-78
2022/08/14 02:50:41;;;;;;;9.13;5.45;;;22.10;93.90;;;;;;4994764;28;20034;-78
2022/08/14 02:53:08;;;;;;;9.55;6.20;;;22.20;93.60;;;;;;4995556;28;20026;-77
2022/08/14 02:55:34;;;;;;;11.18;5.75;;;22.30;93.60;;;;;;4994828;28;20043;-79
2022/08/14 02:58:00;;;;;;;8.27;5.90;;;22.20;94.00;;;;;;4993821;28;20033;-79
2022/08/14 03:00:26;;;;;;;6.80;5.30;;;22.10;94.00;;;;;;4994832;28;20100;-78
2022/08/14 03:02:52;;;;;;;6.63;5.82;;;22.10;94.10;;;;;;4993789;28;20456;-76
2022/08/14 03:05:19;;;;;;;7.60;5.65;;;22.10;94.20;;;;;;4994230;28;20037;-78
2022/08/14 03:07:47;;;;;;;9.05;5.65;;;22.00;94.50;;;;;;4994966;28;20019;-78
2022/08/14 03:10:13;;;;;;;7.70;5.68;;;22.00;94.10;;;;;;4992728;28;20137;-80
2022/08/14 03:12:39;;;;;;;6.55;5.28;;;22.00;94.40;;;;;;4993364;28;20110;-79
2022/08/14 03:15:09;;;;;;;6.88;5.70;;;21.90;94.30;;;;;;4994511;28;20026;-79
2022/08/14 03:17:35;;;;;;;9.90;5.93;;;21.90;94.50;;;;;;4993286;28;20096;-79
2022/08/14 03:20:05;;;;;;;7.78;6.13;;;21.90;94.30;;;;;;4994809;28;20476;-78
2022/08/14 03:22:31;;;;;;;8.80;6.07;;;21.90;94.40;;;;;;4994686;28;20118;-78
2022/08/14 03:24:57;;;;;;;11.82;6.32;;;21.90;94.50;;;;;;4994726;28;20058;-79
2022/08/14 03:27:23;;;;;;;7.72;5.57;;;21.80;94.40;;;;;;4994423;28;20118;-78
2022/08/14 03:29:49;;;;;;;6.07;5.20;;;21.80;94.70;;;;;;4994314;28;20057;-78
2022/08/14 03:32:14;;;;;;;7.60;5.95;;;21.70;94.80;;;;;;4993913;28;20084;-79
2022/08/14 03:34:42;;;;;;;8.73;5.63;;;21.70;95.00;;;;;;4993303;28;20548;-79
2022/08/14 03:37:09;;;;;;;7.85;5.13;;;21.70;95.00;;;;;;4993810;28;20065;-77
2022/08/14 03:39:35;;;;;;;9.13;5.93;;;21.60;95.00;;;;;;4993791;28;20034;-77
2022/08/14 03:42:01;;;;;;;10.38;6.25;;;21.40;95.50;;;;;;4993931;28;20531;-78
2022/08/14 03:44:31;;;;;;;8.57;5.80;;;21.50;95.50;;;;;;4992577;28;20034;-78
2022/08/14 03:46:57;;;;;;;8.43;6.00;;;21.50;95.70;;;;;;4993932;28;20357;-78
2022/08/14 03:49:23;;;;;;;9.82;6.15;;;21.40;95.70;;;;;;4993482;28;20031;-79
2022/08/14 03:51:49;;;;;;;8.43;6.00;;;21.50;95.90;;;;;;4993676;28;20034;-79
2022/08/14 03:54:15;;;;;;;6.03;5.43;;;21.40;95.60;;;;;;4993404;28;20614;-79
2022/08/14 03:56:43;;;;;;;10.32;5.55;;;21.40;95.70;;;;;;4992300;28;20041;-78
2022/08/14 03:59:12;;;;;;;7.35;5.90;;;21.40;95.70;;;;;;4992720;28;20023;-78
2022/08/14 04:01:39;;;;;;;7.78;5.60;;;21.30;95.90;;;;;;4992815;28;20081;-78
2022/08/14 04:04:06;;;;;;;7.55;6.03;;;21.30;95.90;;;;;;4993317;28;20045;-77
2022/08/14 04:06:33;;;;;;;10.07;6.10;;;21.30;95.90;;;;;;4993304;28;20047;-77
2022/08/14 04:08:58;;;;;;;7.63;5.88;;;21.30;95.90;;;;;;4993077;28;20050;-77
2022/08/14 04:11:24;;;;;;;10.13;5.82;;;21.40;95.80;;;;;;4993050;28;20027;-78
2022/08/14 04:13:50;;;;;;;11.85;6.80;;;21.40;95.80;;;;;;4993639;28;20049;-79
2022/08/14 04:16:21;;;;;;;16.33;6.60;;;21.40;96.10;;;;;;4993159;28;20078;-79
2022/08/14 04:18:55;;;;;;;10.55;6.30;;;21.40;95.90;;;;;;4992911;28;20026;-79
2022/08/14 04:21:23;;;;;;;9.40;6.63;;;21.40;95.70;;;;;;4992120;28;20065;-79
2022/08/14 04:23:50;;;;;;;;;;;21.40;95.90;;;;;;4992493;28;20027;-79
2022/08/14 04:26:20;;;;;;;7.97;5.95;;;21.40;95.90;;;;;;4993490;28;19921;-79
2022/08/14 04:28:48;;;;;;;10.43;6.10;;;21.30;96.30;;;;;;4992294;28;20045;-79
2022/08/14 04:31:14;;;;;;;10.87;6.20;;;21.30;96.40;;;;;;4992165;28;20041;-80
2022/08/14 04:33:40;;;;;;;8.02;6.53;;;21.30;96.40;;;;;;4993448;28;20034;-78
2022/08/14 04:36:07;;;;;;;12.68;6.40;;;21.30;96.30;;;;;;4992036;28;20346;-79
2022/08/14 04:44:01;;;;;;;8.35;5.70;;;21.30;96.00;;;;;;4992679;28;20030;-78
2022/08/14 04:46:27;;;;;;;6.97;6.28;;;21.40;96.20;;;;;;4992502;28;20379;-79
2022/08/14 04:48:54;;;;;;;13.10;6.40;;;21.40;96.20;;;;;;4992625;28;20030;-78
2022/08/14 04:51:26;;;;;;;9.82;7.10;;;21.40;96.20;;;;;;4992453;28;20061;-79
2022/08/14 04:53:53;;;;;;;13.52;7.20;;;21.30;96.80;;;;;;4991533;28;20088;-78
2022/08/14 04:56:23;;;;;;;10.88;7.15;;;21.30;96.50;;;;;;4992250;28;20049;-79
2022/08/14 04:58:56;;;;;;;8.77;6.28;;;21.30;96.40;;;;;;4992812;28;20152;-79
2022/08/14 05:01:24;;;;;;;8.77;6.47;;;21.30;96.50;;;;;;4992544;28;20042;-78
2022/08/14 05:03:50;;;;;;;12.13;6.95;;;21.30;96.90;;;;;;4992426;28;20031;-78
2022/08/14 05:06:17;;;;;;;8.25;6.55;;;21.30;97.10;;;;;;4992520;28;20049;-79
2022/08/14 05:08:42;;;;;;;8.45;6.18;;;21.30;96.90;;;;;;4991060;28;20042;-80
2022/08/14 05:11:09;;;;;;;8.52;6.53;;;21.40;96.60;;;;;;4992207;28;20041;-79
2022/08/14 05:13:36;;;;;;;12.32;6.20;;;21.40;96.60;;;;;;4991439;28;20370;-79
2022/08/14 05:16:06;;;;;;;9.63;6.45;;;21.50;96.70;;;;;;4991982;28;20046;-78
2022/08/14 05:18:37;;;;;;;10.25;6.43;;;21.60;96.70;;;;;;4990888;28;20384;-79
2022/08/14 05:21:07;;;;;;;9.00;6.07;;;21.60;96.80;;;;;;4991842;28;20045;-78
2022/08/14 05:23:37;;;;;;;9.10;6.38;;;21.60;96.80;;;;;;4991961;28;20503;-78
2022/08/14 05:26:11;;;;;;;7.55;5.60;;;21.60;96.80;;;;;;4992490;28;20022;-79
2022/08/14 05:28:40;;;;;;;8.95;5.90;;;21.50;97.10;;;;;;4991963;28;20140;-79
2022/08/14 05:31:06;;;;;;;9.85;6.15;;;21.50;97.00;;;;;;4990928;28;20027;-79
2022/08/14 05:33:34;;;;;;;10.70;6.35;;;21.60;96.90;;;;;;4992266;28;20031;-78
2022/08/14 05:36:01;;;;;;;;;;;21.60;97.10;;;;;;4992418;28;20030;-79
2022/08/14 05:38:32;;;;;;;13.75;7.13;;;21.60;97.00;;;;;;4991741;28;19924;-78
2022/08/14 05:41:01;;;;;;;7.75;6.32;;;21.70;96.90;;;;;;4992060;28;20018;-79
2022/08/14 05:43:27;;;;;;;9.45;6.93;;;21.80;96.60;;;;;;4992088;28;20068;-79
2022/08/14 05:45:54;;;;;;;13.38;6.70;;;21.80;96.60;;;;;;4991764;28;20034;-78
2022/08/14 05:48:20;;;;;;;8.98;6.20;;;21.90;96.40;;;;;;4991815;28;20114;-80
2022/08/14 05:50:45;;;;;;;8.20;6.30;;;21.90;96.30;;;;;;4991998;28;20077;-79
2022/08/14 05:53:11;;;;;;;11.70;6.53;;;21.90;96.60;;;;;;4990723;28;20038;-77
2022/08/14 05:55:37;;;;;;;8.50;6.00;;;22.00;96.40;;;;;;4992709;28;20446;-78
2022/08/14 05:58:05;;;;;;;10.23;6.20;;;22.00;96.20;;;;;;4995828;28;20030;-78
2022/08/14 06:00:40;;;;;;;9.85;6.53;;;22.10;96.20;;;;;;4995923;28;20128;-79
2022/08/14 06:03:13;;;;;;;10.52;6.78;;;22.20;96.70;;;;;;4995479;28;20457;-78
2022/08/14 06:05:40;;;;;;;9.10;7.05;;;22.20;96.80;;;;;;4995466;28;20035;-78
2022/08/14 06:08:15;;;;;;;10.77;6.63;;;22.20;96.70;;;;;;4996045;28;20034;-78
2022/08/14 06:10:41;;;;;;;10.18;6.50;;;22.20;96.80;;;;;;4995483;28;20372;-78
2022/08/14 06:13:06;;;;;;;8.13;6.53;;;22.30;96.90;;;;;;4996015;28;20038;-78
2022/08/14 06:15:32;;;;;;;12.40;7.40;;;22.30;96.70;;;;;;4995601;28;20049;-78
2022/08/14 06:17:58;;;;;;;7.72;6.38;;;22.40;96.80;;;;;;4995414;28;20431;-77
2022/08/14 06:20:24;;;;;;;7.38;6.13;;;22.40;96.70;;;;;;4995164;28;20030;-78
2022/08/14 06:22:50;;;;;;;12.10;6.50;;;22.50;96.50;;;;;;4995916;28;20352;-79
2022/08/14 06:25:16;;;;;;;10.07;6.03;;;22.50;96.40;;;;;;4995308;28;20476;-79
2022/08/14 06:27:45;;;;;;;11.88;7.18;;;22.60;96.50;;;;;;4995294;28;20196;-78
2022/08/14 06:30:16;;;;;;;9.73;6.97;;;22.60;96.30;;;;;;4995218;28;20038;-80
2022/08/14 06:32:43;;;;;;;7.72;6.38;;;22.70;96.40;;;;;;4995122;28;20464;-80
2022/08/14 06:35:11;;;;;;;6.75;5.85;;;22.70;96.30;;;;;;4995203;28;20030;-80
2022/08/14 06:37:42;;;;;;;;;;;22.80;96.10;;;;;;4995194;28;20057;-81
2022/08/14 06:40:11;;;;;;;14.65;6.50;;;22.80;96.20;;;;;;4995257;28;19973;-80
2022/08/14 06:42:38;;;;;;;12.98;7.00;;;22.80;96.00;;;;;;4995012;28;20460;-80
2022/08/14 06:45:04;;;;;;;10.55;6.82;;;22.90;95.90;;;;;;4993584;28;20570;-80
2022/08/14 06:47:34;;;;;;;11.18;6.78;;;22.90;96.10;;;;;;4994727;28;20708;-79
2022/08/14 06:50:00;;;;;;;8.55;6.85;;;23.00;96.10;;;;;;4995577;28;20030;-80
2022/08/14 06:52:25;;;;;;;8.93;6.30;;;23.00;96.20;;;;;;4994685;28;20499;-81
2022/08/14 06:54:51;;;;;;;8.65;6.20;;;23.10;96.00;;;;;;4994637;28;20120;-82
2022/08/14 06:57:17;;;;;;;8.82;6.90;;;23.10;96.20;;;;;;4994911;28;20030;-82
2022/08/14 06:59:43;;;;;;;10.60;8.35;;;23.20;95.80;;;;;;4995331;28;20030;-82
2022/08/14 07:07:40;;;;;;;8.70;6.60;;;23.40;95.70;;;;;;4994702;28;20487;-83
2022/08/14 07:10:07;;;;;;;12.55;6.78;;;23.50;95.40;;;;;;4994837;28;20062;-82
2022/08/14 07:12:33;;;;;;;9.10;6.45;;;23.60;95.40;;;;;;4995220;28;20169;-83
2022/08/14 07:14:59;;;;;;;10.48;7.60;;;23.60;95.10;;;;;;4993361;28;20117;-82
2022/08/14 07:17:25;;;;;;;9.82;7.25;;;23.70;95.20;;;;;;4993368;28;20126;-81
2022/08/14 07:19:51;;;;;;;8.82;6.60;;;23.80;95.30;;;;;;4995249;28;20033;-80
2022/08/14 07:22:17;;;;;;;8.15;6.00;;;23.80;95.30;;;;;;4994542;28;20030;-80
2022/08/14 07:24:43;;;;;;;13.60;6.80;;;23.90;95.20;;;;;;4994267;28;20372;-80
2022/08/14 07:27:09;;;;;;;8.70;6.43;;;24.00;95.10;;;;;;4994354;28;20031;-80
2022/08/14 07:29:34;;;;;;;8.38;6.93;;;24.20;95.00;;;;;;4993942;28;20041;-81
2022/08/14 07:32:00;;;;;;;9.65;7.13;;;24.20;94.90;;;;;;4994731;28;20361;-80
2022/08/14 07:34:26;;;;;;;7.70;6.63;;;24.20;94.80;;;;;;4993052;28;20038;-79
2022/08/14 07:36:54;;;;;;;7.75;6.20;;;24.30;94.70;;;;;;4994150;28;20476;-80
2022/08/14 07:39:20;;;;;;;;;;;24.40;94.60;;;;;;4994336;28;20049;-81
2022/08/14 07:41:45;;;;;;;9.85;6.88;;;24.50;94.50;;;;;;4994156;28;19914;-80
2022/08/14 07:44:12;;;;;;;11.93;6.60;;;24.60;94.50;;;;;;4993956;28;20034;-79
2022/08/14 07:46:41;;;;;;;9.33;6.43;;;24.60;94.40;;;;;;4994053;28;20026;-81
2022/08/14 07:49:08;;;;;;;11.52;7.70;;;24.80;94.30;;;;;;4993884;28;20031;-78
2022/08/14 07:51:33;;;;;;;10.75;8.65;;;24.90;94.10;;;;;;4993564;28;20030;-79
2022/08/14 07:53:59;;;;;;;10.48;7.38;;;24.90;94.00;;;;;;4992940;28;20046;-81
2022/08/14 07:56:25;;;;;;;10.75;7.30;;;25.10;93.80;;;;;;4993680;28;20445;-79
2022/08/14 07:58:51;;;;;;;10.32;7.55;;;25.20;93.50;;;;;;4994285;28;20117;-78
2022/08/14 08:01:17;;;;;;;10.38;7.60;;;25.30;93.40;;;;;;4993640;28;20364;-80
2022/08/14 08:03:45;;;;;;;11.35;6.97;;;25.40;93.10;;;;;;4993225;28;20360;-79
2022/08/14 08:06:15;;;;;;;10.20;6.88;;;25.50;93.00;;;;;;4993447;28;20464;-79
2022/08/14 08:08:42;;;;;;;8.05;6.85;;;25.60;92.60;;;;;;4993119;28;20058;-79
2022/08/14 08:11:10;;;;;;;9.23;6.63;;;25.80;92.50;;;;;;4993501;28;20420;-78
2022/08/14 08:13:40;;;;;;;10.00;7.03;;;25.90;92.10;;;;;;4993790;28;20373;-79
2022/08/14 08:16:07;;;;;;;8.05;6.32;;;26.10;91.80;;;;;;4992079;28;20388;-79
2022/08/14 08:18:32;;;;;;;7.43;5.97;;;26.40;91.50;;;;;;4992566;28;20125;-79
2022/08/14 08:20:58;;;;;;;9.60;6.45;;;26.50;91.20;;;;;;4993143;28;20098;-79
2022/08/14 08:23:26;;;;;;;10.43;6.53;;;26.80;90.90;;;;;;4992811;28;20093;-80
2022/08/14 08:25:52;;;;;;;8.27;6.70;;;27.20;90.60;;;;;;4992715;28;20342;-81
2022/08/14 08:28:22;;;;;;;12.25;7.03;;;27.60;89.20;;;;;;4993410;28;20088;-83
2022/08/14 08:30:53;;;;;;;10.05;6.00;;;28.40;88.00;;;;;;4993208;28;20361;-83
2022/08/14 08:33:20;;;;;;;8.02;5.85;;;29.20;85.70;;;;;;4992160;28;20027;-79
2022/08/14 08:35:47;;;;;;;10.20;6.78;;;29.90;83.60;;;;;;4992782;28;20038;-81
2022/08/14 08:38:16;;;;;;;7.07;6.13;;;30.70;80.80;;;;;;4992768;28;20361;-80
2022/08/14 08:40:43;;;;;;;8.95;5.95;;;31.30;77.10;;;;;;4993458;28;20353;-80
2022/08/14 08:43:15;;;;;;;;;;;30.90;77.50;;;;;;4992235;28;20041;-81
2022/08/14 08:45:41;;;;;;;8.90;6.45;;;31.40;75.80;;;;;;4992737;28;19929;-80
2022/08/14 08:48:07;;;;;;;6.68;5.90;;;31.30;75.50;;;;;;4992647;28;20030;-80
2022/08/14 08:50:36;;;;;;;7.15;6.38;;;31.60;73.70;;;;;;4991732;28;20504;-80
2022/08/14 08:53:07;;;;;;;9.80;6.50;;;32.20;74.40;;;;;;4992387;28;20090;-80
2022/08/14 08:55:39;;;;;;;6.60;5.38;;;32.70;74.90;;;;;;4992869;28;20034;-78
2022/08/14 08:58:09;;;;;;;8.55;6.30;;;33.50;71.10;;;;;;4991350;28;20539;-79
2022/08/14 09:00:38;;;;;;;8.27;6.00;;;34.20;69.60;;;;;;4992760;28;20038;-79
2022/08/14 09:03:16;;;;;;;8.75;6.15;;;34.80;67.10;;;;;;4991185;28;20034;-80
2022/08/14 09:06:11;;;;;;;6.95;5.78;;;35.40;64.40;;;;;;4991877;28;20030;-81
2022/08/14 09:08:37;;;;;;;8.70;5.78;;;36.00;62.50;;;;;;4983454;28;20041;-80
2022/08/14 09:11:08;;;;;;;;;;;36.10;60.10;;;;;;4992738;28;20050;-81
2022/08/14 09:13:34;;;;;;;10.40;6.15;;;36.00;59.30;;;;;;5007342;28;20240;-80
2022/08/14 09:16:01;;;;;;;8.38;6.00;;;36.00;59.30;;;;;;4991965;28;20038;-79
2022/08/14 09:18:27;;;;;;;7.03;6.27;;;36.40;58.40;;;;;;4991939;28;20041;-80
2022/08/14 09:20:55;;;;;;;9.90;5.72;;;36.70;57.30;;;;;;4991891;28;20035;-80
2022/08/14 09:23:22;;;;;;;7.43;5.80;;;37.40;56.30;;;;;;4991818;28;20022;-81
2022/08/14 09:25:52;;;;;;;7.70;5.77;;;37.60;54.50;;;;;;4992155;28;20109;-80
2022/08/14 09:28:19;;;;;;;5.90;5.35;;;37.40;54.60;;;;;;4992106;28;20483;-79
2022/08/14 09:30:55;;;;;;;10.40;5.60;;;38.20;53.50;;;;;;4990465;28;20066;-80
2022/08/14 09:33:39;;;;;;;6.40;5.47;;;37.40;53.10;;;;;;4992102;28;20461;-80
2022/08/14 09:36:38;;;;;;;6.15;5.43;;;38.40;51.90;;;;;;4991318;28;20077;-80
2022/08/14 09:39:22;;;;;;;8.52;5.30;;;39.10;50.90;;;;;;4991078;28;20027;-80
2022/08/14 09:42:21;;;;;;;6.00;5.35;;;39.70;48.90;;;;;;4991770;28;20030;-80
2022/08/14 09:45:15;;;;;;;5.93;5.40;;;39.70;48.80;;;;;;4991103;28;20053;-80
2022/08/14 09:47:48;;;;;;;7.53;5.60;;;40.20;47.50;;;;;;4991749;28;20068;-79
2022/08/14 09:50:45;;;;;;;5.85;5.25;;;40.40;46.90;;;;;;4992107;28;20022;-78
2022/08/14 09:53:16;;;;;;;8.77;5.70;;;40.10;46.30;;;;;;4987420;28;20096;-78
2022/08/14 09:55:43;;;;;;;7.78;6.18;;;39.90;47.30;;;;;;4992267;28;20023;-79
2022/08/14 09:58:17;;;;;;;6.18;5.57;;;40.20;46.60;;;;;;4991898;28;20117;-79
2022/08/14 10:00:44;;;;;;;9.23;5.68;;;40.30;45.70;;;;;;4992058;28;20069;-78
2022/08/14 10:03:10;;;;;;;9.02;7.45;;;40.20;44.90;;;;;;4991786;28;20031;-78
2022/08/14 10:05:36;;;;;;;9.70;5.90;;;39.60;44.90;;;;;;4991561;28;20045;-78
2022/08/14 10:08:03;;;;;;;5.63;5.07;;;39.40;46.50;;;;;;4992412;28;20096;-79
2022/08/14 10:10:33;;;;;;;7.03;5.43;;;38.90;46.10;;;;;;4991668;28;20062;-76
2022/08/14 10:13:01;;;;;;;8.48;5.45;;;39.40;45.70;;;;;;4991594;28;20515;-80
2022/08/14 10:15:29;;;;;;;12.80;6.20;;;39.10;46.20;;;;;;4991689;28;20044;-78
2022/08/14 10:18:13;;;;;;;8.70;5.93;;;39.30;45.40;;;;;;4991783;28;20138;-80
2022/08/14 10:20:50;;;;;;;9.30;5.32;;;38.20;45.10;;;;;;4991469;28;20081;-79
2022/08/14 10:23:20;;;;;;;8.02;6.15;;;38.00;46.70;;;;;;4990664;28;20117;-79
2022/08/14 10:25:49;;;;;;;6.72;5.07;;;39.00;45.90;;;;;;4992175;28;20042;-80
2022/08/14 10:28:20;;;;;;;11.82;5.82;;;39.00;45.40;;;;;;4991127;28;20031;-79
2022/08/14 10:30:52;;;;;;;7.90;5.50;;;38.80;45.20;;;;;;4991711;28;20056;-80
2022/08/14 10:33:29;;;;;;;12.73;7.53;;;39.00;45.40;;;;;;4988456;28;20046;-80
2022/08/14 10:35:57;;;;;;;11.13;8.15;;;37.70;46.00;;;;;;4991528;28;20026;-78
2022/08/14 10:38:31;;;;;;;8.70;6.45;;;36.30;48.30;;;;;;4991324;28;20156;-79
2022/08/14 10:41:12;;;;;;;8.38;6.72;;;36.50;48.90;;;;;;4991272;28;20022;-79
2022/08/14 10:43:40;;;;;;;6.97;6.28;;;35.90;50.00;;;;;;4993541;28;20041;-78
2022/08/14 10:46:17;;;;;;;10.23;9.07;;;36.00;49.90;;;;;;4993399;28;20030;-77
2022/08/14 10:48:56;;;;;;;;;;;35.60;50.30;;;;;;4994123;28;20026;-77
2022/08/14 10:51:27;;;;;;;8.18;5.95;;;35.40;50.50;;;;;;4994767;28;19925;-78
2022/08/14 10:53:55;;;;;;;6.88;6.18;;;35.30;50.70;;;;;;4993855;28;20460;-77
2022/08/14 10:56:32;;;;;;;8.55;6.45;;;34.80;51.50;;;;;;4993634;28;20033;-79
2022/08/14 10:59:08;;;;;;;11.40;6.45;;;34.70;52.50;;;;;;4995029;28;20456;-78
2022/08/14 11:01:37;;;;;;;9.27;6.82;;;34.80;51.40;;;;;;4993224;28;20043;-78
2022/08/14 11:04:03;;;;;;;8.57;6.90;;;34.70;50.50;;;;;;4993595;28;20038;-78
2022/08/14 11:06:30;;;;;;;12.73;8.90;;;34.40;50.70;;;;;;4993330;28;20350;-78
2022/08/14 11:08:56;;;;;;;7.50;6.05;;;34.50;51.10;;;;;;4993152;28;20141;-80
2022/08/14 11:11:25;;;;;;;11.27;6.82;;;34.50;51.20;;;;;;4993506;28;20037;-78
2022/08/14 11:13:56;;;;;;;7.10;6.15;;;34.30;50.90;;;;;;4994975;28;20026;-79
2022/08/14 11:16:23;;;;;;;10.13;5.80;;;33.60;52.40;;;;;;4994538;28;20035;-78
2022/08/14 11:18:50;;;;;;;10.00;6.20;;;33.70;51.70;;;;;;4993142;28;20050;-78
2022/08/14 11:21:19;;;;;;;7.77;6.10;;;33.60;51.50;;;;;;4994410;28;20425;-78
2022/08/14 11:23:48;;;;;;;8.32;6.32;;;33.60;51.70;;;;;;4993226;28;20266;-78
2022/08/14 11:26:17;;;;;;;9.45;6.00;;;33.60;51.70;;;;;;4993090;28;20038;-78
2022/08/14 11:28:46;;;;;;;9.02;6.53;;;33.70;51.80;;;;;;4994748;28;20030;-77
2022/08/14 11:31:13;;;;;;;7.95;5.90;;;33.80;51.30;;;;;;4993003;28;20031;-77
2022/08/14 11:33:40;;;;;;;12.60;7.20;;;33.60;51.10;;;;;;4993089;28;20027;-77
2022/08/14 11:36:08;;;;;;;9.60;6.13;;;33.60;51.20;;;;;;4994184;28;20399;-76
2022/08/14 11:38:43;;;;;;;10.48;6.43;;;33.60;51.20;;;;;;4994034;28;20097;-77
2022/08/14 11:41:11;;;;;;;8.45;6.40;;;33.40;51.50;;;;;;4993297;28;20026;-78
2022/08/14 11:43:41;;;;;;;13.38;5.88;;;33.00;51.70;;;;;;4994329;28;20364;-76
2022/08/14 11:46:09;;;;;;;10.07;6.07;;;33.00;52.20;;;;;;4993120;28;20038;-79
2022/08/14 11:48:46;;;;;;;11.80;5.78;;;32.90;52.60;;;;;;4993064;28;20038;-78
2022/08/14 11:51:19;;;;;;;8.82;5.85;;;33.00;52.40;;;;;;4992981;28;20041;-79
2022/08/14 11:53:51;;;;;;;9.68;6.03;;;33.00;52.20;;;;;;4992871;28;20030;-77
2022/08/14 11:56:17;;;;;;;6.28;5.60;;;33.00;51.60;;;;;;4976230;28;20064;-76
2022/08/14 11:58:50;;;;;;;9.32;5.68;;;32.80;51.70;;;;;;4993476;28;20092;-78
2022/08/14 12:01:16;;;;;;;12.50;6.15;;;32.80;51.80;;;;;;4976382;28;20030;-77
2022/08/14 12:03:47;;;;;;;8.40;5.60;;;32.70;52.00;;;;;;4992477;28;20034;-78
2022/08/14 12:06:16;;;;;;;7.88;5.30;;;32.60;52.10;;;;;;4993696;28;20437;-78
2022/08/14 12:08:42;;;;;;;7.38;5.78;;;32.70;52.10;;;;;;4992244;28;20587;-79
2022/08/14 12:11:14;;;;;;;10.20;6.00;;;32.70;52.20;;;;;;4992498;28;20096;-78
2022/08/14 12:13:42;;;;;;;8.35;6.13;;;32.70;52.60;;;;;;4993947;28;20027;-79
2022/08/14 12:16:11;;;;;;;8.25;5.60;;;32.60;52.60;;;;;;4991768;28;20030;-79
2022/08/14 12:18:43;;;;;;;9.23;5.97;;;32.60;52.90;;;;;;4993412;28;20364;-78
2022/08/14 12:21:19;;;;;;;8.25;6.00;;;32.60;52.70;;;;;;4992606;28;20027;-79
2022/08/14 12:23:58;;;;;;;10.70;5.78;;;32.60;52.70;;;;;;4993099;28;20026;-79
2022/08/14 12:26:24;;;;;;;9.32;5.85;;;32.60;52.70;;;;;;4993169;28;20030;-78
2022/08/14 12:28:50;;;;;;;11.90;5.95;;;32.60;52.90;;;;;;4993795;28;20033;-79
2022/08/14 12:31:20;;;;;;;8.02;6.25;;;32.60;52.70;;;;;;4993221;28;20034;-78
2022/08/14 12:33:58;;;;;;;9.93;6.05;;;32.60;52.40;;;;;;4993244;28;20022;-79
2022/08/14 12:36:29;;;;;;;11.77;6.68;;;32.50;52.70;;;;;;4992208;28;20045;-79
2022/08/14 12:38:59;;;;;;;7.63;6.05;;;32.50;53.10;;;;;;4993153;28;20026;-78
2022/08/14 12:41:29;;;;;;;10.25;6.18;;;32.50;52.80;;;;;;4992525;28;20113;-78
2022/08/14 12:44:03;;;;;;;7.53;6.18;;;32.40;53.10;;;;;;4992414;28;20113;-78
2022/08/14 12:46:40;;;;;;;8.65;6.60;;;32.50;52.90;;;;;;4991481;28;20035;-78
2022/08/14 12:49:17;;;;;;;11.10;5.77;;;32.50;52.50;;;;;;4991907;28;20045;-77
2022/08/14 12:51:55;;;;;;;9.57;6.25;;;32.40;52.70;;;;;;4991517;28;20041;-79
2022/08/14 12:54:21;;;;;;;7.97;6.10;;;32.30;52.90;;;;;;4991645;28;20114;-79
2022/08/14 12:56:47;;;;;;;8.38;6.57;;;32.30;52.50;;;;;;4992485;28;20058;-79
2022/08/14 12:59:15;;;;;;;9.68;6.45;;;32.30;52.60;;;;;;4992479;28;20054;-78
2022/08/14 13:01:44;;;;;;;8.25;6.82;;;32.30;52.60;;;;;;4992275;28;20026;-79
2022/08/14 13:04:14;;;;;;;9.35;6.43;;;32.30;52.20;;;;;;4992705;28;20023;-79
2022/08/14 13:06:44;;;;;;;9.20;6.68;;;32.20;52.30;;;;;;4974768;28;20065;-79
2022/08/14 13:09:12;;;;;;;9.93;7.45;;;32.30;53.00;;;;;;4992272;28;20042;-78
2022/08/14 13:11:43;;;;;;;9.32;6.72;;;32.20;52.70;;;;;;4991385;28;20034;-78